Time;durP1;ratioP1;P1;durP2;ratioP2;P2;SDS_P1;SDS_P2;PMS_P1;PMS_P2;Temp;Humidity;BMP_temperature;BMP_pressure;BME280_temperature;BME280_humidity;BME280_pressure;Samples;Min_cycle;Max_cycle;Signal;HPM_P1;HPM_P2
2023/12/22 00:01:32;;;;;;;5.00;1.30;;;8.30;99.90;;;;;;5049489;28;20184;-48
2023/12/22 00:04:00;;;;;;;1.63;0.80;;;8.30;99.90;;;;;;5056937;28;20224;-47
2023/12/22 00:06:28;;;;;;;3.83;2.27;;;8.40;99.90;;;;;;5047193;28;20769;-47
2023/12/22 00:08:57;;;;;;;3.13;1.13;;;8.30;99.90;;;;;;5050890;28;20825;-47
2023/12/22 00:11:25;;;;;;;2.00;1.30;;;8.30;99.90;;;;;;5057725;28;21234;-48
2023/12/22 00:13:53;;;;;;;2.00;0.90;;;8.30;99.90;;;;;;5049102;28;20459;-46
2023/12/22 00:16:24;;;;;;;4.77;1.40;;;8.30;99.90;;;;;;5051793;28;20432;-46
2023/12/22 00:18:59;;;;;;;2.28;1.25;;;8.40;99.90;;;;;;5053243;28;20468;-48
2023/12/22 00:21:28;;;;;;;3.10;1.67;;;8.30;99.90;;;;;;5057721;28;20202;-52
2023/12/22 00:23:56;;;;;;;2.90;1.10;;;8.30;99.90;;;;;;5044183;28;21073;-48
2023/12/22 00:26:24;;;;;;;2.60;1.10;;;8.30;99.90;;;;;;5052570;28;20489;-47
2023/12/22 00:28:52;;;;;;;5.10;1.77;;;8.30;99.90;;;;;;5039443;28;20839;-49
2023/12/22 00:31:20;;;;;;;4.80;1.80;;;8.30;99.90;;;;;;5058259;28;20433;-48
2023/12/22 00:33:49;;;;;;;2.67;1.20;;;8.30;99.90;;;;;;5039303;28;20512;-47
2023/12/22 00:36:22;;;;;;;3.70;1.27;;;8.30;99.90;;;;;;5039499;28;20950;-48
2023/12/22 00:38:51;;;;;;;4.50;1.07;;;8.30;99.90;;;;;;5047143;28;20463;-48
2023/12/22 00:41:19;;;;;;;5.85;1.20;;;8.30;99.90;;;;;;5054075;28;20437;-46
2023/12/22 00:43:47;;;;;;;2.80;0.83;;;8.30;99.90;;;;;;5041530;28;20638;-49
2023/12/22 00:46:15;;;;;;;2.60;1.00;;;8.30;99.90;;;;;;5047475;28;20978;-47
2023/12/22 00:48:43;;;;;;;3.00;1.10;;;8.30;99.90;;;;;;5050736;28;20489;-49
2023/12/22 00:51:11;;;;;;;4.03;1.50;;;8.30;99.90;;;;;;5055592;28;21032;-49
2023/12/22 00:53:41;;;;;;;2.53;1.10;;;8.30;99.90;;;;;;5047455;28;20299;-47
2023/12/22 00:56:09;;;;;;;4.80;1.37;;;8.30;99.90;;;;;;5059158;28;20435;-49
2023/12/22 00:58:37;;;;;;;2.60;1.13;;;8.30;99.90;;;;;;5051960;28;20485;-49
2023/12/22 01:01:05;;;;;;;2.30;1.20;;;8.30;99.90;;;;;;5059386;28;20454;-48
2023/12/22 01:03:33;;;;;;;7.97;1.30;;;8.30;99.90;;;;;;5057231;28;20548;-48
2023/12/22 01:06:01;;;;;;;2.00;0.80;;;8.30;99.90;;;;;;5060258;28;21053;-47
2023/12/22 01:08:30;;;;;;;4.20;1.20;;;8.30;99.90;;;;;;5046436;28;20527;-48
2023/12/22 01:10:59;;;;;;;3.93;1.40;;;8.30;99.90;;;;;;5052683;28;20428;-50
2023/12/22 01:13:27;;;;;;;5.30;1.60;;;8.30;99.90;;;;;;5044844;28;20457;-49
2023/12/22 01:15:55;;;;;;;3.95;1.10;;;8.30;99.90;;;;;;5047110;28;20189;-49
2023/12/22 01:18:29;;;;;;;2.90;1.25;;;8.30;99.90;;;;;;5052784;28;20249;-47
2023/12/22 01:20:58;;;;;;;2.40;1.30;;;8.30;99.90;;;;;;5059531;28;20377;-48
2023/12/22 01:23:26;;;;;;;3.43;1.00;;;8.30;99.90;;;;;;5052465;28;20497;-46
2023/12/22 01:25:54;;;;;;;2.63;1.20;;;8.30;99.90;;;;;;5054261;28;20465;-47
2023/12/22 01:28:24;;;;;;;4.77;1.40;;;8.30;99.90;;;;;;5053571;28;20459;-49
2023/12/22 01:30:52;;;;;;;2.87;1.60;;;8.30;99.90;;;;;;5044001;28;20442;-47
2023/12/22 01:33:20;;;;;;;2.80;0.95;;;8.30;99.90;;;;;;5053223;28;20433;-48
2023/12/22 01:35:48;;;;;;;5.00;1.37;;;8.30;99.90;;;;;;5036557;28;20216;-49
2023/12/22 01:38:16;;;;;;;3.47;1.20;;;8.30;99.90;;;;;;5040563;28;20948;-47
2023/12/22 01:40:44;;;;;;;2.77;1.30;;;8.30;99.90;;;;;;5037948;28;20480;-45
2023/12/22 01:43:13;;;;;;;3.78;1.25;;;8.30;99.90;;;;;;5053542;28;20974;-46
2023/12/22 01:45:44;;;;;;;4.23;1.53;;;8.30;99.90;;;;;;5048643;28;20212;-48
2023/12/22 01:48:14;;;;;;;3.58;1.23;;;8.30;99.90;;;;;;5042607;28;20426;-48
2023/12/22 01:50:44;;;;;;;3.83;1.70;;;8.30;99.90;;;;;;5044486;28;20423;-48
2023/12/22 01:53:12;;;;;;;5.40;1.60;;;8.30;99.90;;;;;;5050118;28;20438;-48
2023/12/22 01:55:40;;;;;;;2.38;1.00;;;8.30;99.90;;;;;;5060593;28;20223;-48
2023/12/22 01:58:11;;;;;;;5.55;1.65;;;8.30;99.90;;;;;;5038955;28;20204;-47
2023/12/22 02:00:40;;;;;;;5.23;1.40;;;8.30;99.90;;;;;;5052988;28;20224;-47
2023/12/22 02:03:13;;;;;;;3.93;1.40;;;8.30;99.90;;;;;;5048709;28;20433;-46
2023/12/22 02:05:42;;;;;;;5.70;1.67;;;8.30;99.90;;;;;;5049344;28;20479;-47
2023/12/22 02:08:10;;;;;;;2.77;1.40;;;8.30;99.90;;;;;;5052603;28;20498;-47
2023/12/22 02:10:39;;;;;;;2.80;1.43;;;8.30;99.90;;;;;;5054657;28;20505;-47
2023/12/22 02:13:07;;;;;;;4.70;1.03;;;8.30;99.90;;;;;;5050374;28;21012;-50
2023/12/22 02:15:35;;;;;;;3.93;1.50;;;8.30;99.90;;;;;;5058562;28;20434;-48
2023/12/22 02:18:10;;;;;;;7.70;1.77;;;8.30;99.90;;;;;;5042446;28;20427;-47
2023/12/22 02:20:39;;;;;;;4.90;1.38;;;8.30;99.90;;;;;;5042967;28;20224;-48
2023/12/22 02:23:09;;;;;;;3.40;1.42;;;8.30;99.90;;;;;;5059835;28;20266;-48
2023/12/22 02:25:37;;;;;;;2.28;1.23;;;8.30;99.90;;;;;;5059147;28;20212;-46
2023/12/22 02:28:08;;;;;;;3.15;1.10;;;8.30;99.90;;;;;;5051557;28;20196;-47
2023/12/22 02:30:43;;;;;;;5.53;1.17;;;8.30;99.90;;;;;;5059030;28;20224;-46
2023/12/22 02:33:16;;;;;;;3.93;1.00;;;8.30;99.90;;;;;;4989508;28;2114910;-48
2023/12/22 02:35:47;;;;;;;5.70;1.33;;;8.30;99.90;;;;;;5049669;28;20267;-48
2023/12/22 02:38:17;;;;;;;3.50;1.30;;;8.30;99.90;;;;;;5057064;28;20205;-49
2023/12/22 02:40:46;;;;;;;4.53;1.47;;;8.30;99.90;;;;;;5057381;28;20446;-50
2023/12/22 02:43:14;;;;;;;2.80;1.48;;;8.30;99.90;;;;;;5052126;28;20457;-48
2023/12/22 02:45:42;;;;;;;5.07;1.60;;;8.30;99.90;;;;;;5048039;28;20688;-49
2023/12/22 02:48:10;;;;;;;4.55;1.58;;;8.30;99.90;;;;;;5052477;28;20203;-52
2023/12/22 02:50:39;;;;;;;3.23;1.30;;;8.30;99.90;;;;;;5059162;28;20242;-47
2023/12/22 02:53:07;;;;;;;4.50;1.40;;;8.30;99.90;;;;;;5051942;28;20454;-47
2023/12/22 02:55:36;;;;;;;8.70;2.20;;;8.30;99.90;;;;;;5064925;28;20623;-48
2023/12/22 02:58:04;;;;;;;3.60;1.30;;;8.20;99.90;;;;;;5043340;28;20544;-49
2023/12/22 03:00:32;;;;;;;3.20;1.37;;;8.30;99.90;;;;;;5052611;28;20709;-49
2023/12/22 03:03:01;;;;;;;2.60;1.30;;;8.20;99.90;;;;;;5053066;28;20469;-47
2023/12/22 03:05:29;;;;;;;4.38;1.40;;;8.30;99.90;;;;;;5054979;28;20595;-47
2023/12/22 03:07:57;;;;;;;2.30;0.95;;;8.20;99.90;;;;;;5049838;28;20194;-47
2023/12/22 03:10:25;;;;;;;5.80;2.10;;;8.30;99.90;;;;;;5058517;28;20228;-46
2023/12/22 03:12:55;;;;;;;3.97;1.65;;;8.20;99.90;;;;;;5052948;28;20216;-48
2023/12/22 03:15:23;;;;;;;2.70;1.30;;;8.20;99.90;;;;;;5053354;28;20219;-46
2023/12/22 03:17:51;;;;;;;4.83;2.13;;;8.30;99.90;;;;;;5058616;28;20432;-48
2023/12/22 03:20:19;;;;;;;4.07;1.13;;;8.20;99.90;;;;;;5060358;28;20531;-48
2023/12/22 03:22:47;;;;;;;4.50;1.33;;;8.20;99.90;;;;;;5046448;28;20444;-48
2023/12/22 03:25:16;;;;;;;3.33;1.27;;;8.20;99.90;;;;;;5046890;28;21001;-48
2023/12/22 03:27:44;;;;;;;6.38;1.98;;;8.30;99.90;;;;;;5050075;28;20537;-49
2023/12/22 03:30:15;;;;;;;3.70;1.10;;;8.30;99.90;;;;;;5053004;28;20224;-48
2023/12/22 03:32:43;;;;;;;5.70;1.50;;;8.20;99.90;;;;;;5056445;28;20439;-46
2023/12/22 03:35:11;;;;;;;4.03;1.33;;;8.20;99.90;;;;;;5056555;28;20491;-46
2023/12/22 03:37:39;;;;;;;3.10;1.25;;;8.20;99.90;;;;;;5055255;28;20227;-47
2023/12/22 03:40:10;;;;;;;4.60;1.60;;;8.20;99.90;;;;;;5059520;28;20322;-47
2023/12/22 03:42:38;;;;;;;3.17;1.60;;;8.20;99.90;;;;;;5043852;28;20844;-47
2023/12/22 03:45:07;;;;;;;5.13;1.40;;;8.20;99.90;;;;;;5050144;28;20632;-48
2023/12/22 03:47:37;;;;;;;5.75;1.60;;;8.20;99.90;;;;;;5051829;28;21003;-48
2023/12/22 03:50:06;;;;;;;3.50;1.50;;;8.20;99.90;;;;;;5053265;28;20239;-48
2023/12/22 03:52:35;;;;;;;3.50;1.92;;;8.20;99.90;;;;;;5052624;28;20840;-48
2023/12/22 03:55:03;;;;;;;2.85;1.20;;;8.20;99.90;;;;;;5051381;28;20235;-47
2023/12/22 03:57:31;;;;;;;3.67;1.50;;;8.20;99.90;;;;;;5036573;28;20197;-49
2023/12/22 04:00:03;;;;;;;4.63;1.60;;;8.20;99.90;;;;;;5048660;28;20470;-48
2023/12/22 04:02:31;;;;;;;3.33;1.20;;;8.20;99.90;;;;;;5047389;28;20200;-46
2023/12/22 04:05:01;;;;;;;2.80;1.30;;;8.20;99.90;;;;;;5052619;28;20466;-47
2023/12/22 04:07:29;;;;;;;4.80;1.57;;;8.20;99.90;;;;;;5054679;28;20473;-47
2023/12/22 04:09:57;;;;;;;3.23;1.33;;;8.20;99.90;;;;;;5043321;28;20486;-47
2023/12/22 04:12:25;;;;;;;5.50;2.07;;;8.20;99.90;;;;;;5044881;28;20522;-47
2023/12/22 04:14:53;;;;;;;5.40;1.90;;;8.30;99.90;;;;;;5048674;28;20493;-48
2023/12/22 04:17:21;;;;;;;4.05;1.23;;;8.20;99.90;;;;;;5049672;28;20426;-48
2023/12/22 04:19:49;;;;;;;5.47;2.07;;;8.20;99.90;;;;;;5055673;28;20221;-47
2023/12/22 04:22:19;;;;;;;3.73;1.70;;;8.20;99.90;;;;;;5046439;28;20494;-46
2023/12/22 04:24:47;;;;;;;4.63;1.53;;;8.20;99.90;;;;;;5057165;28;20469;-48
2023/12/22 04:27:15;;;;;;;4.47;1.37;;;8.20;99.90;;;;;;5051098;28;20978;-46
2023/12/22 04:29:43;;;;;;;3.40;1.70;;;8.20;99.90;;;;;;5046844;28;20458;-48
2023/12/22 04:32:12;;;;;;;3.75;1.50;;;8.20;99.90;;;;;;5054719;28;20445;-47
2023/12/22 04:34:40;;;;;;;5.53;1.93;;;8.20;99.90;;;;;;5050471;28;20307;-47
2023/12/22 04:37:08;;;;;;;5.18;1.50;;;8.20;99.90;;;;;;5049247;28;20528;-48
2023/12/22 04:39:37;;;;;;;3.10;1.27;;;8.20;99.90;;;;;;5055541;28;20258;-48
2023/12/22 04:42:05;;;;;;;4.27;1.13;;;8.20;99.90;;;;;;5060382;28;20473;-49
2023/12/22 04:44:33;;;;;;;5.00;1.30;;;8.20;99.90;;;;;;5056589;28;20462;-47
2023/12/22 04:47:02;;;;;;;7.73;1.40;;;8.20;99.90;;;;;;5050968;28;20468;-47
2023/12/22 04:49:30;;;;;;;3.38;1.52;;;8.20;99.90;;;;;;5033994;28;20548;-49
2023/12/22 04:51:58;;;;;;;7.97;1.87;;;8.20;99.90;;;;;;5037924;28;20193;-46
2023/12/22 04:54:30;;;;;;;4.40;1.52;;;8.20;99.90;;;;;;5038386;28;20526;-49
2023/12/22 04:56:59;;;;;;;5.22;1.80;;;8.20;99.90;;;;;;5047098;28;20188;-49
2023/12/22 04:59:28;;;;;;;4.45;1.60;;;8.20;99.90;;;;;;5056845;28;20604;-48
2023/12/22 05:01:56;;;;;;;5.53;1.50;;;8.20;99.90;;;;;;5058496;28;20239;-49
2023/12/22 05:04:24;;;;;;;4.82;1.75;;;8.20;99.90;;;;;;5039752;28;20266;-47
2023/12/22 05:06:52;;;;;;;5.03;1.83;;;8.20;99.90;;;;;;5053715;28;20243;-49
2023/12/22 05:09:20;;;;;;;4.82;1.85;;;8.20;99.90;;;;;;5054575;28;20638;-47
2023/12/22 05:11:48;;;;;;;5.83;1.47;;;8.20;99.90;;;;;;5058175;28;20204;-47
2023/12/22 05:14:17;;;;;;;4.93;1.60;;;8.20;99.90;;;;;;5044220;28;20863;-47
2023/12/22 05:16:46;;;;;;;3.00;1.70;;;8.20;99.90;;;;;;5052219;28;20665;-50
2023/12/22 05:19:14;;;;;;;4.47;1.48;;;8.20;99.90;;;;;;5050305;28;20230;-49
2023/12/22 05:21:42;;;;;;;3.72;1.70;;;8.20;99.90;;;;;;5043553;28;20806;-50
2023/12/22 05:24:10;;;;;;;4.73;1.60;;;8.20;99.90;;;;;;5035705;28;20250;-49
2023/12/22 05:26:38;;;;;;;5.30;1.77;;;8.20;99.90;;;;;;5045040;28;20503;-49
2023/12/22 05:29:08;;;;;;;4.30;1.45;;;8.20;99.90;;;;;;5036823;28;20518;-50
2023/12/22 05:31:39;;;;;;;6.33;1.60;;;8.20;99.90;;;;;;5048217;28;20200;-49
2023/12/22 05:34:11;;;;;;;3.38;1.88;;;8.20;99.90;;;;;;5049344;28;20463;-47
2023/12/22 05:36:39;;;;;;;8.70;2.13;;;8.20;99.90;;;;;;5046287;28;20193;-48
2023/12/22 05:39:09;;;;;;;4.82;1.80;;;8.20;99.90;;;;;;5055327;28;20239;-49
2023/12/22 05:41:37;;;;;;;5.80;1.70;;;8.20;99.90;;;;;;5057342;28;20588;-47
2023/12/22 05:44:06;;;;;;;4.55;1.63;;;8.20;99.90;;;;;;5041709;28;20224;-48
2023/12/22 05:46:38;;;;;;;3.93;1.30;;;8.20;99.90;;;;;;5061335;28;20288;-48
2023/12/22 05:49:07;;;;;;;5.53;1.60;;;8.20;99.90;;;;;;5039707;28;20462;-48
2023/12/22 05:51:38;;;;;;;4.15;1.55;;;8.20;99.90;;;;;;5040463;28;20287;-46
2023/12/22 05:54:08;;;;;;;3.55;1.73;;;8.20;99.90;;;;;;5040916;28;20291;-49
2023/12/22 05:56:36;;;;;;;4.45;1.70;;;8.20;99.90;;;;;;5061228;28;20199;-46
2023/12/22 05:59:04;;;;;;;4.38;1.60;;;8.20;99.90;;;;;;5052389;28;20223;-48
2023/12/22 06:01:32;;;;;;;3.03;1.30;;;8.20;99.90;;;;;;5059787;28;20223;-48
2023/12/22 06:04:01;;;;;;;5.93;1.30;;;8.20;99.90;;;;;;5046245;28;20469;-48
2023/12/22 06:06:30;;;;;;;8.32;2.10;;;8.20;99.90;;;;;;5055796;28;20200;-46
2023/12/22 06:08:58;;;;;;;3.75;1.70;;;8.20;99.90;;;;;;5048970;28;20334;-48
2023/12/22 06:11:26;;;;;;;5.80;1.73;;;8.20;99.90;;;;;;5063886;28;20244;-48
2023/12/22 06:13:54;;;;;;;4.53;1.63;;;8.20;99.90;;;;;;5048444;28;20536;-47
2023/12/22 06:16:26;;;;;;;4.68;1.40;;;8.20;99.90;;;;;;5061673;28;20815;-46
2023/12/22 06:18:54;;;;;;;6.10;1.90;;;8.20;99.90;;;;;;5059806;28;20298;-49
2023/12/22 06:21:23;;;;;;;3.53;1.57;;;8.20;99.90;;;;;;5052203;28;20419;-49
2023/12/22 06:23:51;;;;;;;5.77;1.60;;;8.20;99.90;;;;;;5051270;28;20465;-49
2023/12/22 06:26:19;;;;;;;3.08;1.42;;;8.20;99.90;;;;;;5057991;28;20434;-50
2023/12/22 06:28:47;;;;;;;5.18;1.60;;;8.20;99.90;;;;;;5049621;28;20227;-49
2023/12/22 06:31:19;;;;;;;3.35;1.30;;;8.10;99.90;;;;;;5046177;28;20637;-47
2023/12/22 06:33:48;;;;;;;8.43;1.65;;;8.20;99.90;;;;;;5054174;28;20280;-47
2023/12/22 06:36:20;;;;;;;3.88;1.30;;;8.10;99.90;;;;;;5043467;28;20286;-46
2023/12/22 06:38:50;;;;;;;3.65;1.25;;;8.10;99.90;;;;;;5057528;28;20639;-48
2023/12/22 06:41:20;;;;;;;5.30;2.03;;;8.10;99.90;;;;;;5055875;28;20188;-48
2023/12/22 06:43:54;;;;;;;3.67;1.73;;;8.10;99.90;;;;;;5055707;28;20232;-48
2023/12/22 06:46:25;;;;;;;3.22;1.40;;;8.10;99.90;;;;;;5056278;28;20614;-49
2023/12/22 06:48:54;;;;;;;4.80;2.60;;;8.10;99.90;;;;;;5060036;28;20310;-49
2023/12/22 06:51:24;;;;;;;3.53;1.43;;;8.20;99.90;;;;;;5059048;28;20207;-48
2023/12/22 06:53:54;;;;;;;7.13;2.17;;;8.10;99.90;;;;;;5044867;28;20788;-47
2023/12/22 06:56:24;;;;;;;5.70;1.90;;;8.10;99.90;;;;;;5062835;28;20423;-48
2023/12/22 06:58:54;;;;;;;4.43;1.42;;;8.10;99.90;;;;;;5051909;28;20336;-47
2023/12/22 07:01:23;;;;;;;4.80;1.47;;;8.10;99.90;;;;;;5049626;28;20192;-49
2023/12/22 07:03:52;;;;;;;6.67;1.87;;;8.10;99.90;;;;;;5043139;28;20456;-48
2023/12/22 07:06:21;;;;;;;3.83;1.33;;;8.20;99.90;;;;;;5035067;28;20447;-49
2023/12/22 07:09:32;;;;;;;5.03;1.70;;;8.10;99.90;;;;;;5060378;28;21185;-46
2023/12/22 07:12:01;;;;;;;5.00;1.33;;;8.10;99.90;;;;;;5049877;28;20274;-49
2023/12/22 07:14:29;;;;;;;4.78;1.60;;;8.10;99.90;;;;;;5054189;28;20222;-48
2023/12/22 07:17:01;;;;;;;5.25;1.98;;;8.10;99.90;;;;;;5062064;28;20203;-48
2023/12/22 07:19:29;;;;;;;5.33;1.53;;;8.10;99.90;;;;;;5056846;28;20226;-46
2023/12/22 07:21:57;;;;;;;6.90;1.83;;;8.10;99.90;;;;;;5042490;28;20531;-47
2023/12/22 07:24:25;;;;;;;5.13;1.70;;;8.10;99.90;;;;;;5049244;28;20219;-48
2023/12/22 07:26:54;;;;;;;8.25;2.50;;;8.10;99.90;;;;;;5059806;28;20229;-49
2023/12/22 07:29:22;;;;;;;4.10;1.88;;;8.10;99.90;;;;;;5050597;28;20232;-49
2023/12/22 07:31:52;;;;;;;8.23;2.70;;;8.10;99.90;;;;;;5043724;28;20216;-48
2023/12/22 07:34:22;;;;;;;3.60;1.58;;;8.10;99.90;;;;;;5055345;28;20521;-47
2023/12/22 07:36:50;;;;;;;9.68;1.95;;;8.10;99.90;;;;;;5045647;28;20208;-49
2023/12/22 07:39:33;;;;;;;8.30;1.95;;;8.10;99.90;;;;;;5049673;28;20319;-48
2023/12/22 07:42:06;;;;;;;5.45;2.40;;;8.10;99.90;;;;;;5047805;28;20228;-48
2023/12/22 07:44:34;;;;;;;4.72;1.98;;;8.10;99.90;;;;;;5048463;28;20214;-46
2023/12/22 07:47:03;;;;;;;5.22;2.15;;;8.10;99.90;;;;;;5047107;28;20281;-48
2023/12/22 07:49:31;;;;;;;6.43;2.42;;;8.10;99.90;;;;;;5047928;28;20233;-49
2023/12/22 07:52:00;;;;;;;6.90;2.28;;;8.10;99.90;;;;;;5055099;28;20730;-52
2023/12/22 07:54:31;;;;;;;6.95;1.70;;;8.10;99.90;;;;;;5046091;28;20707;-49
2023/12/22 07:56:59;;;;;;;13.85;2.70;;;8.10;99.90;;;;;;5056889;28;20189;-48
2023/12/22 07:59:28;;;;;;;5.30;2.00;;;8.10;99.90;;;;;;5047752;28;20322;-48
2023/12/22 08:01:59;;;;;;;5.35;2.50;;;8.10;99.90;;;;;;5060634;28;20437;-48
2023/12/22 08:04:28;;;;;;;6.30;2.90;;;8.10;99.90;;;;;;5055444;28;20251;-48
2023/12/22 08:06:56;;;;;;;3.75;1.90;;;8.10;99.90;;;;;;5049877;28;20204;-47
2023/12/22 08:09:24;;;;;;;5.03;2.03;;;8.10;99.90;;;;;;5049969;28;20281;-47
2023/12/22 08:11:53;;;;;;;12.35;2.72;;;8.10;99.90;;;;;;5061391;28;20488;-48
2023/12/22 08:14:23;;;;;;;5.47;2.00;;;8.10;99.90;;;;;;5037567;28;20700;-47
2023/12/22 08:16:53;;;;;;;8.05;2.00;;;8.10;99.90;;;;;;5039586;28;20200;-48
2023/12/22 08:19:21;;;;;;;7.30;2.30;;;8.10;99.90;;;;;;5064884;28;20224;-48
2023/12/22 08:21:53;;;;;;;5.72;2.33;;;8.10;99.90;;;;;;5042235;28;20197;-48
2023/12/22 08:24:21;;;;;;;6.15;2.28;;;8.10;99.90;;;;;;5055683;28;20225;-48
2023/12/22 08:26:51;;;;;;;6.60;2.30;;;8.10;99.90;;;;;;5061232;28;20703;-49
2023/12/22 08:29:19;;;;;;;8.90;2.10;;;8.10;99.90;;;;;;5052625;28;20770;-48
2023/12/22 08:31:48;;;;;;;5.15;1.92;;;8.10;99.90;;;;;;5034056;28;20287;-49
2023/12/22 08:34:18;;;;;;;10.55;3.45;;;8.10;99.90;;;;;;5054179;28;20708;-47
2023/12/22 08:36:46;;;;;;;11.40;4.07;;;8.10;99.90;;;;;;5047671;28;20221;-48
2023/12/22 08:39:15;;;;;;;14.20;5.15;;;8.10;99.90;;;;;;5047139;28;20517;-47
2023/12/22 08:41:43;;;;;;;12.20;4.60;;;8.10;99.90;;;;;;5053451;28;20195;-49
2023/12/22 08:44:14;;;;;;;13.13;3.80;;;8.10;99.90;;;;;;5038998;28;20212;-48
2023/12/22 08:46:42;;;;;;;8.57;3.20;;;8.10;99.90;;;;;;5056555;28;20205;-48
2023/12/22 08:49:11;;;;;;;10.27;3.42;;;8.10;99.90;;;;;;5060667;28;20228;-45
2023/12/22 08:51:41;;;;;;;9.48;3.00;;;8.10;99.90;;;;;;5061897;28;20277;-46
2023/12/22 08:54:09;;;;;;;6.80;3.70;;;8.10;99.90;;;;;;5048714;28;20229;-47
2023/12/22 08:56:37;;;;;;;14.53;3.30;;;8.20;99.90;;;;;;5052901;28;20433;-48
2023/12/22 08:59:05;;;;;;;7.10;2.38;;;8.10;99.90;;;;;;5049821;28;20545;-48
2023/12/22 09:01:33;;;;;;;5.20;2.40;;;8.10;99.90;;;;;;5061992;28;20193;-48
2023/12/22 09:04:01;;;;;;;5.28;2.22;;;8.10;99.90;;;;;;5048255;28;20462;-48
2023/12/22 09:06:29;;;;;;;6.07;2.63;;;8.10;99.90;;;;;;5056179;28;20546;-46
2023/12/22 09:08:59;;;;;;;5.33;2.97;;;8.10;99.90;;;;;;5061234;28;20508;-47
2023/12/22 09:11:27;;;;;;;8.60;2.53;;;8.10;99.90;;;;;;5061850;28;20464;-47
2023/12/22 09:13:55;;;;;;;11.03;2.63;;;8.10;99.90;;;;;;5041839;28;20468;-46
2023/12/22 09:16:24;;;;;;;5.35;2.75;;;8.10;99.90;;;;;;5052371;28;20516;-47
2023/12/22 09:18:53;;;;;;;5.63;2.35;;;8.10;99.90;;;;;;5063259;28;20354;-48
2023/12/22 09:21:21;;;;;;;7.27;2.27;;;8.10;99.90;;;;;;5060898;28;20190;-46
2023/12/22 09:23:50;;;;;;;9.68;2.28;;;8.10;99.90;;;;;;5047547;28;20468;-47
2023/12/22 09:26:19;;;;;;;7.85;2.45;;;8.10;99.90;;;;;;5047609;28;20203;-48
2023/12/22 09:28:48;;;;;;;7.75;2.13;;;8.10;99.90;;;;;;5051113;28;20231;-49
2023/12/22 09:31:18;;;;;;;6.57;2.78;;;8.10;99.90;;;;;;5054394;28;20451;-47
2023/12/22 09:33:47;;;;;;;6.10;2.27;;;8.10;99.90;;;;;;5058997;28;20230;-47
2023/12/22 09:36:15;;;;;;;15.43;2.73;;;8.10;99.90;;;;;;5049456;28;20451;-47
2023/12/22 09:38:43;;;;;;;6.95;1.90;;;8.10;99.90;;;;;;5051183;28;20477;-47
2023/12/22 09:41:12;;;;;;;6.20;2.97;;;8.10;99.90;;;;;;5055132;28;20283;-49
2023/12/22 09:43:43;;;;;;;4.72;2.20;;;8.10;99.90;;;;;;5051874;28;20855;-49
2023/12/22 09:46:14;;;;;;;6.95;2.10;;;8.10;99.90;;;;;;5064255;28;20206;-45
2023/12/22 09:48:43;;;;;;;5.93;2.30;;;8.10;99.90;;;;;;5059231;28;20231;-46
2023/12/22 09:51:12;;;;;;;9.20;2.93;;;8.10;99.90;;;;;;5052496;28;20196;-47
2023/12/22 09:53:41;;;;;;;6.20;1.90;;;8.10;99.90;;;;;;5050270;28;20912;-47
2023/12/22 09:56:09;;;;;;;5.30;2.03;;;8.10;99.90;;;;;;5063316;28;20200;-49
2023/12/22 09:58:38;;;;;;;6.65;3.03;;;8.10;99.90;;;;;;5055150;28;20223;-47
2023/12/22 10:01:09;;;;;;;5.73;2.10;;;8.10;99.90;;;;;;5065043;28;20201;-47
2023/12/22 10:03:38;;;;;;;5.97;2.20;;;8.10;99.90;;;;;;5064015;28;20507;-46
2023/12/22 10:06:09;;;;;;;4.70;1.58;;;8.10;99.90;;;;;;5049964;28;20256;-48
2023/12/22 10:08:39;;;;;;;3.57;1.60;;;8.10;99.90;;;;;;5061288;28;20228;-46
2023/12/22 10:11:09;;;;;;;6.13;2.10;;;8.10;99.90;;;;;;5052050;28;20442;-50
2023/12/22 10:13:40;;;;;;;4.13;1.80;;;8.10;99.90;;;;;;5051553;28;20468;-46
2023/12/22 10:16:10;;;;;;;5.10;2.20;;;8.10;99.90;;;;;;5057815;28;20952;-48
2023/12/22 10:18:41;;;;;;;3.83;1.70;;;8.10;99.90;;;;;;5068788;28;20233;-47
2023/12/22 10:21:09;;;;;;;5.40;1.80;;;8.10;99.90;;;;;;5054628;28;20450;-46
2023/12/22 10:23:37;;;;;;;5.90;2.72;;;8.10;99.90;;;;;;5045422;28;20227;-47
2023/12/22 10:26:06;;;;;;;6.50;1.70;;;8.10;99.90;;;;;;5056180;28;20204;-47
2023/12/22 10:28:35;;;;;;;5.65;1.98;;;8.10;99.90;;;;;;5044761;28;20446;-47
2023/12/22 10:31:07;;;;;;;8.90;2.40;;;8.10;99.90;;;;;;5050312;28;20228;-48
2023/12/22 10:33:37;;;;;;;5.20;1.90;;;8.10;99.90;;;;;;5056952;28;21096;-48
2023/12/22 10:36:06;;;;;;;3.80;1.67;;;8.10;99.90;;;;;;5054765;28;20306;-50
2023/12/22 10:38:35;;;;;;;4.73;1.63;;;8.10;99.90;;;;;;5057136;28;20517;-48
2023/12/22 10:41:03;;;;;;;3.85;1.70;;;8.10;99.90;;;;;;5048554;28;20549;-48
2023/12/22 10:43:32;;;;;;;6.33;2.40;;;8.10;99.90;;;;;;5044834;28;20180;-47
2023/12/22 10:46:00;;;;;;;2.87;1.60;;;8.10;99.90;;;;;;5048342;28;21337;-45
2023/12/22 10:48:30;;;;;;;5.03;1.70;;;8.10;99.90;;;;;;5047945;28;20425;-47
2023/12/22 10:51:00;;;;;;;3.45;1.45;;;8.10;99.90;;;;;;5050022;28;20993;-47
2023/12/22 10:53:28;;;;;;;5.53;1.77;;;8.10;99.90;;;;;;5054401;28;20244;-47
2023/12/22 10:55:57;;;;;;;3.40;1.73;;;8.10;99.90;;;;;;5038638;28;20243;-47
2023/12/22 10:58:26;;;;;;;4.03;1.40;;;8.10;99.90;;;;;;5040509;28;20527;-47
2023/12/22 11:00:55;;;;;;;4.72;1.45;;;8.10;99.90;;;;;;5039437;28;20647;-46
2023/12/22 11:03:27;;;;;;;4.07;1.53;;;8.10;99.90;;;;;;5050373;28;20689;-47
2023/12/22 11:06:05;;;;;;;4.95;1.75;;;8.10;99.90;;;;;;5047944;28;20452;-47
2023/12/22 11:08:35;;;;;;;2.67;1.35;;;8.10;99.90;;;;;;5058452;28;20241;-50
2023/12/22 11:11:14;;;;;;;2.50;1.85;;;8.10;99.90;;;;;;5050498;28;20706;-48
2023/12/22 11:13:44;;;;;;;2.33;1.10;;;8.10;99.90;;;;;;5056091;28;20226;-48
2023/12/22 11:16:16;;;;;;;4.15;1.75;;;8.10;99.90;;;;;;5046913;28;20195;-46
2023/12/22 11:18:45;;;;;;;3.27;1.47;;;8.10;99.90;;;;;;5056738;28;20720;-49
2023/12/22 11:21:14;;;;;;;5.03;1.70;;;8.10;99.90;;;;;;5050477;28;20965;-47
2023/12/22 11:23:44;;;;;;;1.85;1.10;;;8.10;99.90;;;;;;5058411;28;20618;-46
2023/12/22 11:26:14;;;;;;;3.63;1.50;;;8.10;99.90;;;;;;5063436;28;20188;-47
2023/12/22 11:28:44;;;;;;;2.00;1.13;;;8.10;99.90;;;;;;5053839;28;20392;-47
2023/12/22 11:31:12;;;;;;;2.45;1.65;;;8.10;99.90;;;;;;5057136;28;20480;-47
2023/12/22 11:33:45;;;;;;;4.00;1.40;;;8.10;99.90;;;;;;5052365;28;20848;-50
2023/12/22 11:36:32;;;;;;;3.93;1.50;;;8.10;99.90;;;;;;5053134;28;20576;-45
2023/12/22 11:39:01;;;;;;;4.10;1.90;;;8.10;99.90;;;;;;5053430;28;20466;-48
2023/12/22 11:41:33;;;;;;;2.33;1.33;;;8.10;99.90;;;;;;5050729;28;20176;-47
2023/12/22 11:44:03;;;;;;;1.97;0.80;;;8.10;99.90;;;;;;5051390;28;20251;-45
2023/12/22 11:46:33;;;;;;;4.50;1.07;;;8.10;99.90;;;;;;5061992;28;20440;-47
2023/12/22 11:49:02;;;;;;;4.47;1.70;;;8.10;99.90;;;;;;5061029;28;20489;-46
2023/12/22 11:51:35;;;;;;;2.42;1.00;;;8.10;99.90;;;;;;5067057;28;21185;-47
2023/12/22 11:54:03;;;;;;;3.50;0.97;;;8.10;99.90;;;;;;5054014;28;20646;-47
2023/12/22 11:56:32;;;;;;;3.10;1.30;;;8.10;99.90;;;;;;5056098;28;20435;-47
2023/12/22 11:59:01;;;;;;;3.13;1.50;;;8.10;99.90;;;;;;5052872;28;20477;-45
2023/12/22 12:01:31;;;;;;;2.90;1.00;;;8.10;99.90;;;;;;5064528;28;20283;-47
2023/12/22 12:04:03;;;;;;;2.70;1.10;;;8.10;99.90;;;;;;5064583;28;21054;-47
2023/12/22 12:06:36;;;;;;;1.88;1.15;;;8.10;99.90;;;;;;5053292;28;20441;-47
2023/12/22 12:09:08;;;;;;;3.63;1.20;;;8.10;99.90;;;;;;5062513;28;20928;-47
2023/12/22 12:12:17;;;;;;;2.53;1.20;;;8.10;99.90;;;;;;5067132;28;20483;-47
2023/12/22 12:14:49;;;;;;;1.80;1.02;;;8.10;99.90;;;;;;5054370;28;20239;-47
2023/12/22 12:17:20;;;;;;;2.75;1.10;;;8.10;99.90;;;;;;5051134;28;20226;-47
2023/12/22 12:19:48;;;;;;;1.73;1.10;;;8.10;99.90;;;;;;5046305;28;20224;-50
2023/12/22 12:22:20;;;;;;;2.17;1.08;;;8.10;99.90;;;;;;5049473;28;20199;-48
2023/12/22 12:24:49;;;;;;;2.17;1.00;;;8.10;99.90;;;;;;5033798;28;20494;-47
2023/12/22 12:27:19;;;;;;;3.25;1.55;;;8.10;99.90;;;;;;5040160;28;20213;-47
2023/12/22 12:29:47;;;;;;;3.15;1.10;;;8.10;99.90;;;;;;5030479;28;20232;-47
2023/12/22 12:32:16;;;;;;;1.90;1.40;;;8.10;99.90;;;;;;5036099;28;20218;-47
2023/12/22 12:34:44;;;;;;;2.35;1.52;;;8.10;99.90;;;;;;5058512;28;20222;-46
2023/12/22 12:37:13;;;;;;;1.50;0.90;;;8.10;99.90;;;;;;5061280;28;20582;-46
2023/12/22 12:39:45;;;;;;;2.95;1.10;;;8.10;99.90;;;;;;5064569;28;20469;-50
2023/12/22 12:42:17;;;;;;;1.50;0.97;;;8.10;99.90;;;;;;5055994;28;20608;-47
2023/12/22 12:44:47;;;;;;;2.07;1.10;;;8.10;99.90;;;;;;5031365;28;20452;-47
2023/12/22 12:47:16;;;;;;;3.47;1.88;;;8.10;99.90;;;;;;5066614;28;20442;-48
2023/12/22 12:49:45;;;;;;;2.00;1.20;;;8.10;99.90;;;;;;5067469;28;20227;-48
2023/12/22 12:52:14;;;;;;;2.70;1.45;;;8.10;99.90;;;;;;5048233;28;20555;-48
2023/12/22 12:54:44;;;;;;;1.87;1.00;;;8.10;99.90;;;;;;5063034;28;20226;-49
2023/12/22 12:57:16;;;;;;;4.33;1.60;;;8.10;99.90;;;;;;5058498;28;20434;-49
2023/12/22 12:59:47;;;;;;;2.20;1.23;;;8.10;99.90;;;;;;5056947;28;20994;-48
2023/12/22 13:02:16;;;;;;;2.10;1.27;;;8.10;99.90;;;;;;5051132;28;20192;-48
2023/12/22 13:04:44;;;;;;;1.70;0.97;;;8.10;99.90;;;;;;5060676;28;21077;-48
2023/12/22 13:07:13;;;;;;;1.70;1.10;;;8.10;99.90;;;;;;5049946;28;20477;-48
2023/12/22 13:09:43;;;;;;;2.30;1.00;;;8.10;99.90;;;;;;5051373;28;20468;-47